sensor_id;sensor_type;location;lat;lon;timestamp;P1;durP1;ratioP1;P2;durP2;ratioP2
13704;SDS011;6924;52.122;9.952;2024-01-16T00:00:44;3.03;;;1.00;;
13704;SDS011;6924;52.122;9.952;2024-01-16T00:03:10;2.97;;;1.20;;
13704;SDS011;6924;52.122;9.952;2024-01-16T00:05:36;1.23;;;0.83;;
13704;SDS011;6924;52.122;9.952;2024-01-16T00:08:03;1.70;;;1.40;;
13704;SDS011;6924;52.122;9.952;2024-01-16T00:10:30;1.57;;;1.00;;
13704;SDS011;6924;52.122;9.952;2024-01-16T00:12:56;4.33;;;1.20;;
13704;SDS011;6924;52.122;9.952;2024-01-16T00:15:23;2.43;;;0.70;;
13704;SDS011;6924;52.122;9.952;2024-01-16T00:17:50;1.27;;;0.53;;
13704;SDS011;6924;52.122;9.952;2024-01-16T00:20:17;2.93;;;1.00;;
13704;SDS011;6924;52.122;9.952;2024-01-16T00:22:44;2.33;;;1.10;;
13704;SDS011;6924;52.122;9.952;2024-01-16T00:25:10;2.47;;;0.60;;
13704;SDS011;6924;52.122;9.952;2024-01-16T00:27:37;0.87;;;0.87;;
13704;SDS011;6924;52.122;9.952;2024-01-16T00:30:03;3.47;;;0.93;;
13704;SDS011;6924;52.122;9.952;2024-01-16T00:32:31;1.73;;;0.80;;
13704;SDS011;6924;52.122;9.952;2024-01-16T00:34:59;2.50;;;1.00;;
13704;SDS011;6924;52.122;9.952;2024-01-16T00:37:25;1.50;;;0.90;;
13704;SDS011;6924;52.122;9.952;2024-01-16T00:39:52;2.43;;;0.73;;
13704;SDS011;6924;52.122;9.952;2024-01-16T00:42:18;0.83;;;0.63;;
13704;SDS011;6924;52.122;9.952;2024-01-16T00:44:45;1.10;;;0.60;;
13704;SDS011;6924;52.122;9.952;2024-01-16T00:47:11;1.47;;;0.70;;
13704;SDS011;6924;52.122;9.952;2024-01-16T00:49:38;1.97;;;0.70;;
13704;SDS011;6924;52.122;9.952;2024-01-16T00:52:05;1.13;;;0.53;;
13704;SDS011;6924;52.122;9.952;2024-01-16T00:54:32;0.50;;;0.50;;
13704;SDS011;6924;52.122;9.952;2024-01-16T00:56:59;2.10;;;0.80;;
13704;SDS011;6924;52.122;9.952;2024-01-16T00:59:25;4.93;;;0.80;;
13704;SDS011;6924;52.122;9.952;2024-01-16T01:01:51;14.67;;;1.30;;
13704;SDS011;6924;52.122;9.952;2024-01-16T01:04:18;0.60;;;0.60;;
13704;SDS011;6924;52.122;9.952;2024-01-16T01:06:44;0.87;;;0.60;;
13704;SDS011;6924;52.122;9.952;2024-01-16T01:09:12;2.17;;;1.23;;
13704;SDS011;6924;52.122;9.952;2024-01-16T01:11:39;0.93;;;0.70;;
13704;SDS011;6924;52.122;9.952;2024-01-16T01:14:05;1.13;;;0.80;;
13704;SDS011;6924;52.122;9.952;2024-01-16T01:16:31;4.13;;;0.97;;
13704;SDS011;6924;52.122;9.952;2024-01-16T01:18:58;0.63;;;0.63;;
13704;SDS011;6924;52.122;9.952;2024-01-16T01:21:24;3.57;;;0.60;;
13704;SDS011;6924;52.122;9.952;2024-01-16T01:23:51;1.77;;;1.17;;
13704;SDS011;6924;52.122;9.952;2024-01-16T01:26:19;2.23;;;0.80;;
13704;SDS011;6924;52.122;9.952;2024-01-16T01:28:45;2.13;;;0.80;;
13704;SDS011;6924;52.122;9.952;2024-01-16T01:31:12;2.83;;;0.80;;
13704;SDS011;6924;52.122;9.952;2024-01-16T01:33:38;2.03;;;1.53;;
13704;SDS011;6924;52.122;9.952;2024-01-16T01:36:05;1.63;;;0.83;;
13704;SDS011;6924;52.122;9.952;2024-01-16T01:38:32;2.73;;;1.27;;
13704;SDS011;6924;52.122;9.952;2024-01-16T01:40:58;1.20;;;1.07;;
13704;SDS011;6924;52.122;9.952;2024-01-16T01:43:26;2.77;;;1.47;;
13704;SDS011;6924;52.122;9.952;2024-01-16T01:46:08;1.33;;;1.00;;
13704;SDS011;6924;52.122;9.952;2024-01-16T01:48:36;6.23;;;1.00;;
13704;SDS011;6924;52.122;9.952;2024-01-16T01:51:03;1.93;;;0.97;;
13704;SDS011;6924;52.122;9.952;2024-01-16T01:53:30;3.90;;;0.93;;
13704;SDS011;6924;52.122;9.952;2024-01-16T01:55:58;1.77;;;0.70;;
13704;SDS011;6924;52.122;9.952;2024-01-16T01:58:26;1.03;;;0.90;;
13704;SDS011;6924;52.122;9.952;2024-01-16T02:00:53;1.57;;;1.30;;
13704;SDS011;6924;52.122;9.952;2024-01-16T02:03:19;1.23;;;0.93;;
13704;SDS011;6924;52.122;9.952;2024-01-16T02:05:49;1.83;;;0.97;;
13704;SDS011;6924;52.122;9.952;2024-01-16T02:08:16;3.43;;;1.00;;
13704;SDS011;6924;52.122;9.952;2024-01-16T02:10:43;1.97;;;0.93;;
13704;SDS011;6924;52.122;9.952;2024-01-16T02:13:13;1.13;;;0.80;;
13704;SDS011;6924;52.122;9.952;2024-01-16T02:15:41;2.20;;;0.80;;
13704;SDS011;6924;52.122;9.952;2024-01-16T02:18:07;1.43;;;1.33;;
13704;SDS011;6924;52.122;9.952;2024-01-16T02:20:33;4.27;;;1.00;;
13704;SDS011;6924;52.122;9.952;2024-01-16T02:23:01;1.20;;;0.90;;
13704;SDS011;6924;52.122;9.952;2024-01-16T02:25:31;3.13;;;1.00;;
13704;SDS011;6924;52.122;9.952;2024-01-16T02:27:59;1.97;;;1.00;;
13704;SDS011;6924;52.122;9.952;2024-01-16T02:30:25;5.57;;;0.90;;
13704;SDS011;6924;52.122;9.952;2024-01-16T02:32:52;1.60;;;0.83;;
13704;SDS011;6924;52.122;9.952;2024-01-16T02:35:18;1.50;;;0.90;;
13704;SDS011;6924;52.122;9.952;2024-01-16T02:37:45;3.60;;;0.90;;
13704;SDS011;6924;52.122;9.952;2024-01-16T02:40:11;4.27;;;1.60;;
13704;SDS011;6924;52.122;9.952;2024-01-16T02:42:39;1.37;;;1.10;;
13704;SDS011;6924;52.122;9.952;2024-01-16T02:45:06;1.00;;;0.83;;
13704;SDS011;6924;52.122;9.952;2024-01-16T02:47:33;2.87;;;0.77;;
13704;SDS011;6924;52.122;9.952;2024-01-16T02:50:00;5.40;;;1.10;;
13704;SDS011;6924;52.122;9.952;2024-01-16T02:52:26;4.53;;;1.00;;
13704;SDS011;6924;52.122;9.952;2024-01-16T02:54:53;4.93;;;0.80;;
13704;SDS011;6924;52.122;9.952;2024-01-16T02:57:19;0.40;;;0.40;;
13704;SDS011;6924;52.122;9.952;2024-01-16T02:59:47;3.20;;;0.60;;
13704;SDS011;6924;52.122;9.952;2024-01-16T03:02:13;3.57;;;0.70;;
13704;SDS011;6924;52.122;9.952;2024-01-16T03:04:40;4.27;;;0.80;;
13704;SDS011;6924;52.122;9.952;2024-01-16T03:07:07;1.07;;;1.00;;
13704;SDS011;6924;52.122;9.952;2024-01-16T03:09:33;2.07;;;0.60;;
13704;SDS011;6924;52.122;9.952;2024-01-16T03:12:00;2.17;;;0.73;;
13704;SDS011;6924;52.122;9.952;2024-01-16T03:14:26;0.43;;;0.40;;
13704;SDS011;6924;52.122;9.952;2024-01-16T03:16:54;1.37;;;0.97;;
13704;SDS011;6924;52.122;9.952;2024-01-16T03:19:20;5.03;;;1.00;;
13704;SDS011;6924;52.122;9.952;2024-01-16T03:21:47;1.50;;;0.70;;
13704;SDS011;6924;52.122;9.952;2024-01-16T03:24:14;3.70;;;0.67;;
13704;SDS011;6924;52.122;9.952;2024-01-16T03:26:40;1.77;;;0.97;;
13704;SDS011;6924;52.122;9.952;2024-01-16T03:29:07;1.33;;;0.60;;
13704;SDS011;6924;52.122;9.952;2024-01-16T03:31:34;2.93;;;0.73;;
13704;SDS011;6924;52.122;9.952;2024-01-16T03:34:01;1.97;;;0.50;;
13704;SDS011;6924;52.122;9.952;2024-01-16T03:36:28;2.67;;;0.90;;
13704;SDS011;6924;52.122;9.952;2024-01-16T03:38:54;0.83;;;0.43;;
13704;SDS011;6924;52.122;9.952;2024-01-16T03:41:20;3.03;;;0.70;;
13704;SDS011;6924;52.122;9.952;2024-01-16T03:43:47;1.53;;;0.70;;
13704;SDS011;6924;52.122;9.952;2024-01-16T03:46:13;2.57;;;0.57;;
13704;SDS011;6924;52.122;9.952;2024-01-16T03:48:40;1.50;;;0.53;;
13704;SDS011;6924;52.122;9.952;2024-01-16T03:51:07;2.07;;;0.63;;
13704;SDS011;6924;52.122;9.952;2024-01-16T03:53:35;2.93;;;0.67;;
13704;SDS011;6924;52.122;9.952;2024-01-16T03:56:01;1.83;;;0.80;;
13704;SDS011;6924;52.122;9.952;2024-01-16T03:58:27;5.60;;;0.73;;
13704;SDS011;6924;52.122;9.952;2024-01-16T04:00:54;7.97;;;0.97;;
13704;SDS011;6924;52.122;9.952;2024-01-16T04:03:21;5.77;;;0.70;;
13704;SDS011;6924;52.122;9.952;2024-01-16T04:05:47;5.90;;;0.73;;
13704;SDS011;6924;52.122;9.952;2024-01-16T04:08:15;3.17;;;0.80;;
13704;SDS011;6924;52.122;9.952;2024-01-16T04:10:42;9.53;;;1.43;;
13704;SDS011;6924;52.122;9.952;2024-01-16T04:13:08;1.37;;;0.90;;
13704;SDS011;6924;52.122;9.952;2024-01-16T04:15:37;3.23;;;0.70;;
13704;SDS011;6924;52.122;9.952;2024-01-16T04:18:03;3.27;;;0.90;;
13704;SDS011;6924;52.122;9.952;2024-01-16T04:20:30;2.73;;;1.20;;
13704;SDS011;6924;52.122;9.952;2024-01-16T04:22:56;4.87;;;0.90;;
13704;SDS011;6924;52.122;9.952;2024-01-16T04:25:25;3.93;;;1.23;;
13704;SDS011;6924;52.122;9.952;2024-01-16T04:27:51;4.27;;;1.23;;
13704;SDS011;6924;52.122;9.952;2024-01-16T04:30:17;2.30;;;0.93;;
13704;SDS011;6924;52.122;9.952;2024-01-16T04:32:45;5.17;;;0.90;;
13704;SDS011;6924;52.122;9.952;2024-01-16T04:35:11;2.90;;;0.67;;
13704;SDS011;6924;52.122;9.952;2024-01-16T04:37:37;5.77;;;1.07;;
13704;SDS011;6924;52.122;9.952;2024-01-16T04:40:04;5.20;;;1.20;;
13704;SDS011;6924;52.122;9.952;2024-01-16T04:42:32;4.27;;;1.00;;
13704;SDS011;6924;52.122;9.952;2024-01-16T04:44:59;3.73;;;1.27;;
13704;SDS011;6924;52.122;9.952;2024-01-16T04:47:25;1.93;;;0.80;;
13704;SDS011;6924;52.122;9.952;2024-01-16T04:49:52;1.70;;;1.00;;
13704;SDS011;6924;52.122;9.952;2024-01-16T04:52:18;1.67;;;0.90;;
13704;SDS011;6924;52.122;9.952;2024-01-16T04:54:44;13.70;;;1.07;;
13704;SDS011;6924;52.122;9.952;2024-01-16T04:57:11;3.07;;;0.90;;
13704;SDS011;6924;52.122;9.952;2024-01-16T04:59:39;5.40;;;0.90;;
13704;SDS011;6924;52.122;9.952;2024-01-16T05:02:06;4.10;;;0.80;;
13704;SDS011;6924;52.122;9.952;2024-01-16T05:04:33;4.33;;;1.07;;
13704;SDS011;6924;52.122;9.952;2024-01-16T05:07:02;2.73;;;0.93;;
13704;SDS011;6924;52.122;9.952;2024-01-16T05:09:29;3.17;;;0.80;;
13704;SDS011;6924;52.122;9.952;2024-01-16T05:11:55;5.27;;;1.30;;
13704;SDS011;6924;52.122;9.952;2024-01-16T05:14:22;3.50;;;0.90;;
13704;SDS011;6924;52.122;9.952;2024-01-16T05:16:51;5.00;;;1.03;;
13704;SDS011;6924;52.122;9.952;2024-01-16T05:19:18;5.50;;;1.20;;
13704;SDS011;6924;52.122;9.952;2024-01-16T05:21:44;3.53;;;0.70;;
13704;SDS011;6924;52.122;9.952;2024-01-16T05:24:10;3.63;;;0.90;;
13704;SDS011;6924;52.122;9.952;2024-01-16T05:26:37;2.97;;;1.10;;
13704;SDS011;6924;52.122;9.952;2024-01-16T05:29:03;5.30;;;1.33;;
13704;SDS011;6924;52.122;9.952;2024-01-16T05:31:30;2.97;;;0.80;;
13704;SDS011;6924;52.122;9.952;2024-01-16T05:33:57;2.23;;;1.33;;
13704;SDS011;6924;52.122;9.952;2024-01-16T05:36:24;2.70;;;1.20;;
13704;SDS011;6924;52.122;9.952;2024-01-16T05:38:50;2.07;;;0.83;;
13704;SDS011;6924;52.122;9.952;2024-01-16T05:41:18;4.93;;;0.90;;
13704;SDS011;6924;52.122;9.952;2024-01-16T05:43:44;3.20;;;1.10;;
13704;SDS011;6924;52.122;9.952;2024-01-16T05:46:11;1.97;;;1.03;;
13704;SDS011;6924;52.122;9.952;2024-01-16T05:48:38;1.70;;;0.90;;
13704;SDS011;6924;52.122;9.952;2024-01-16T05:51:06;5.17;;;1.40;;
13704;SDS011;6924;52.122;9.952;2024-01-16T05:53:33;1.97;;;1.03;;
13704;SDS011;6924;52.122;9.952;2024-01-16T05:55:59;2.80;;;1.20;;
13704;SDS011;6924;52.122;9.952;2024-01-16T05:58:25;2.20;;;1.23;;
13704;SDS011;6924;52.122;9.952;2024-01-16T06:00:52;3.57;;;1.50;;
13704;SDS011;6924;52.122;9.952;2024-01-16T06:03:18;3.30;;;2.23;;
13704;SDS011;6924;52.122;9.952;2024-01-16T06:05:44;5.43;;;1.20;;
13704;SDS011;6924;52.122;9.952;2024-01-16T06:08:12;1.23;;;1.13;;
13704;SDS011;6924;52.122;9.952;2024-01-16T06:10:38;2.67;;;1.10;;
13704;SDS011;6924;52.122;9.952;2024-01-16T06:13:05;2.87;;;1.17;;
13704;SDS011;6924;52.122;9.952;2024-01-16T06:15:31;3.60;;;1.03;;
13704;SDS011;6924;52.122;9.952;2024-01-16T06:17:58;2.43;;;1.40;;
13704;SDS011;6924;52.122;9.952;2024-01-16T06:20:24;2.33;;;1.10;;
13704;SDS011;6924;52.122;9.952;2024-01-16T06:22:50;3.47;;;1.17;;
13704;SDS011;6924;52.122;9.952;2024-01-16T06:25:18;1.90;;;1.20;;
13704;SDS011;6924;52.122;9.952;2024-01-16T06:27:45;1.20;;;1.10;;
13704;SDS011;6924;52.122;9.952;2024-01-16T06:30:11;2.50;;;1.77;;
13704;SDS011;6924;52.122;9.952;2024-01-16T06:32:38;3.10;;;1.70;;
13704;SDS011;6924;52.122;9.952;2024-01-16T06:35:05;4.27;;;1.70;;
13704;SDS011;6924;52.122;9.952;2024-01-16T06:37:32;3.43;;;1.60;;
13704;SDS011;6924;52.122;9.952;2024-01-16T06:39:59;4.00;;;1.40;;
13704;SDS011;6924;52.122;9.952;2024-01-16T06:42:27;3.47;;;1.43;;
13704;SDS011;6924;52.122;9.952;2024-01-16T06:44:53;3.30;;;2.20;;
13704;SDS011;6924;52.122;9.952;2024-01-16T06:47:19;4.73;;;1.37;;
13704;SDS011;6924;52.122;9.952;2024-01-16T06:49:46;2.93;;;1.90;;
13704;SDS011;6924;52.122;9.952;2024-01-16T06:52:12;5.20;;;1.80;;
13704;SDS011;6924;52.122;9.952;2024-01-16T06:54:38;3.63;;;2.00;;
13704;SDS011;6924;52.122;9.952;2024-01-16T06:57:05;5.97;;;2.20;;
13704;SDS011;6924;52.122;9.952;2024-01-16T06:59:33;3.33;;;2.20;;
13704;SDS011;6924;52.122;9.952;2024-01-16T07:01:59;4.33;;;2.10;;
13704;SDS011;6924;52.122;9.952;2024-01-16T07:04:25;2.47;;;1.63;;
13704;SDS011;6924;52.122;9.952;2024-01-16T07:06:52;7.33;;;2.53;;
13704;SDS011;6924;52.122;9.952;2024-01-16T07:09:18;8.33;;;2.50;;
13704;SDS011;6924;52.122;9.952;2024-01-16T07:11:45;3.30;;;1.73;;
13704;SDS011;6924;52.122;9.952;2024-01-16T07:14:12;5.27;;;2.17;;
13704;SDS011;6924;52.122;9.952;2024-01-16T07:16:40;3.63;;;1.90;;
13704;SDS011;6924;52.122;9.952;2024-01-16T07:19:06;5.50;;;2.23;;
13704;SDS011;6924;52.122;9.952;2024-01-16T07:21:32;8.50;;;2.13;;
13704;SDS011;6924;52.122;9.952;2024-01-16T07:24:00;9.10;;;2.60;;
13704;SDS011;6924;52.122;9.952;2024-01-16T07:26:26;7.80;;;2.07;;
13704;SDS011;6924;52.122;9.952;2024-01-16T07:28:53;2.20;;;1.80;;
13704;SDS011;6924;52.122;9.952;2024-01-16T07:31:19;3.47;;;2.17;;
13704;SDS011;6924;52.122;9.952;2024-01-16T07:33:47;7.83;;;2.30;;
13704;SDS011;6924;52.122;9.952;2024-01-16T07:36:13;3.77;;;1.90;;
13704;SDS011;6924;52.122;9.952;2024-01-16T07:38:40;3.97;;;1.93;;
13704;SDS011;6924;52.122;9.952;2024-01-16T07:41:06;6.43;;;1.87;;
13704;SDS011;6924;52.122;9.952;2024-01-16T07:43:33;1.73;;;1.50;;
13704;SDS011;6924;52.122;9.952;2024-01-16T07:46:00;3.13;;;1.87;;
13704;SDS011;6924;52.122;9.952;2024-01-16T07:48:26;3.93;;;1.97;;
13704;SDS011;6924;52.122;9.952;2024-01-16T07:50:54;1.97;;;1.40;;
13704;SDS011;6924;52.122;9.952;2024-01-16T07:53:20;4.97;;;1.80;;
13704;SDS011;6924;52.122;9.952;2024-01-16T07:55:47;5.57;;;1.97;;
13704;SDS011;6924;52.122;9.952;2024-01-16T07:58:14;3.70;;;1.67;;
13704;SDS011;6924;52.122;9.952;2024-01-16T08:00:40;5.97;;;1.73;;
13704;SDS011;6924;52.122;9.952;2024-01-16T08:03:07;3.10;;;1.67;;
13704;SDS011;6924;52.122;9.952;2024-01-16T08:05:35;4.37;;;1.67;;
13704;SDS011;6924;52.122;9.952;2024-01-16T08:08:03;4.50;;;2.20;;
13704;SDS011;6924;52.122;9.952;2024-01-16T08:10:30;2.93;;;1.90;;
13704;SDS011;6924;52.122;9.952;2024-01-16T08:12:56;6.23;;;1.57;;
13704;SDS011;6924;52.122;9.952;2024-01-16T08:15:23;2.10;;;1.30;;
13704;SDS011;6924;52.122;9.952;2024-01-16T08:17:49;7.23;;;1.87;;
13704;SDS011;6924;52.122;9.952;2024-01-16T08:20:16;5.00;;;1.67;;
13704;SDS011;6924;52.122;9.952;2024-01-16T08:22:42;3.53;;;2.00;;
13704;SDS011;6924;52.122;9.952;2024-01-16T08:25:10;4.00;;;1.47;;
13704;SDS011;6924;52.122;9.952;2024-01-16T08:27:36;3.97;;;1.97;;
13704;SDS011;6924;52.122;9.952;2024-01-16T08:30:03;6.13;;;1.93;;
13704;SDS011;6924;52.122;9.952;2024-01-16T08:32:30;4.50;;;2.03;;
13704;SDS011;6924;52.122;9.952;2024-01-16T08:34:57;5.63;;;2.83;;
13704;SDS011;6924;52.122;9.952;2024-01-16T08:37:23;3.17;;;1.63;;
13704;SDS011;6924;52.122;9.952;2024-01-16T08:39:50;4.53;;;1.93;;
13704;SDS011;6924;52.122;9.952;2024-01-16T08:42:18;7.47;;;1.93;;
13704;SDS011;6924;52.122;9.952;2024-01-16T08:44:44;2.20;;;1.60;;
13704;SDS011;6924;52.122;9.952;2024-01-16T08:47:10;5.83;;;2.20;;
13704;SDS011;6924;52.122;9.952;2024-01-16T08:49:37;2.70;;;1.70;;
13704;SDS011;6924;52.122;9.952;2024-01-16T08:52:04;5.00;;;2.03;;
13704;SDS011;6924;52.122;9.952;2024-01-16T08:54:31;3.10;;;1.70;;
13704;SDS011;6924;52.122;9.952;2024-01-16T08:56:57;3.73;;;2.63;;
13704;SDS011;6924;52.122;9.952;2024-01-16T08:59:25;3.83;;;1.80;;
13704;SDS011;6924;52.122;9.952;2024-01-16T09:01:53;6.77;;;1.97;;
13704;SDS011;6924;52.122;9.952;2024-01-16T09:04:19;2.13;;;1.57;;
13704;SDS011;6924;52.122;9.952;2024-01-16T09:06:46;5.63;;;2.00;;
13704;SDS011;6924;52.122;9.952;2024-01-16T09:09:12;2.90;;;2.10;;
13704;SDS011;6924;52.122;9.952;2024-01-16T09:11:40;2.90;;;2.57;;
13704;SDS011;6924;52.122;9.952;2024-01-16T09:14:07;3.77;;;2.20;;
13704;SDS011;6924;52.122;9.952;2024-01-16T09:16:35;3.60;;;2.53;;
13704;SDS011;6924;52.122;9.952;2024-01-16T09:19:01;3.90;;;2.30;;
13704;SDS011;6924;52.122;9.952;2024-01-16T09:21:28;4.10;;;2.17;;
13704;SDS011;6924;52.122;9.952;2024-01-16T09:23:54;7.77;;;2.40;;
13704;SDS011;6924;52.122;9.952;2024-01-16T09:26:20;3.50;;;2.20;;
13704;SDS011;6924;52.122;9.952;2024-01-16T09:28:47;6.77;;;2.37;;
13704;SDS011;6924;52.122;9.952;2024-01-16T09:31:14;4.63;;;2.03;;
13704;SDS011;6924;52.122;9.952;2024-01-16T09:33:42;2.77;;;2.40;;
13704;SDS011;6924;52.122;9.952;2024-01-16T09:36:09;5.90;;;2.07;;
13704;SDS011;6924;52.122;9.952;2024-01-16T09:38:36;5.87;;;2.73;;
13704;SDS011;6924;52.122;9.952;2024-01-16T09:41:02;8.40;;;2.87;;
13704;SDS011;6924;52.122;9.952;2024-01-16T09:43:29;5.67;;;2.57;;
13704;SDS011;6924;52.122;9.952;2024-01-16T09:45:57;3.30;;;2.47;;
13704;SDS011;6924;52.122;9.952;2024-01-16T09:48:27;3.13;;;2.27;;
13704;SDS011;6924;52.122;9.952;2024-01-16T09:50:56;4.60;;;2.60;;
13704;SDS011;6924;52.122;9.952;2024-01-16T09:53:22;7.80;;;2.47;;
13704;SDS011;6924;52.122;9.952;2024-01-16T09:55:49;3.40;;;2.63;;
13704;SDS011;6924;52.122;9.952;2024-01-16T09:58:16;5.30;;;2.20;;
13704;SDS011;6924;52.122;9.952;2024-01-16T10:00:45;4.97;;;2.70;;
13704;SDS011;6924;52.122;9.952;2024-01-16T10:03:13;3.63;;;2.57;;
13704;SDS011;6924;52.122;9.952;2024-01-16T10:05:40;7.93;;;2.83;;
13704;SDS011;6924;52.122;9.952;2024-01-16T10:08:09;5.93;;;2.43;;
13704;SDS011;6924;52.122;9.952;2024-01-16T10:10:36;5.47;;;2.43;;
13704;SDS011;6924;52.122;9.952;2024-01-16T10:13:02;5.33;;;2.53;;
13704;SDS011;6924;52.122;9.952;2024-01-16T10:15:29;7.53;;;3.13;;
13704;SDS011;6924;52.122;9.952;2024-01-16T10:17:57;5.33;;;2.47;;
13704;SDS011;6924;52.122;9.952;2024-01-16T10:20:33;3.87;;;2.53;;
13704;SDS011;6924;52.122;9.952;2024-01-16T10:23:01;3.43;;;2.20;;
13704;SDS011;6924;52.122;9.952;2024-01-16T10:25:30;6.23;;;3.07;;
13704;SDS011;6924;52.122;9.952;2024-01-16T10:28:03;4.67;;;2.47;;
13704;SDS011;6924;52.122;9.952;2024-01-16T10:30:31;2.90;;;2.57;;
13704;SDS011;6924;52.122;9.952;2024-01-16T10:33:01;2.27;;;2.07;;
13704;SDS011;6924;52.122;9.952;2024-01-16T10:35:39;5.73;;;2.40;;
13704;SDS011;6924;52.122;9.952;2024-01-16T10:38:05;2.37;;;2.13;;
13704;SDS011;6924;52.122;9.952;2024-01-16T10:40:33;2.90;;;2.60;;
13704;SDS011;6924;52.122;9.952;2024-01-16T10:43:00;2.40;;;1.90;;
13704;SDS011;6924;52.122;9.952;2024-01-16T10:45:28;4.77;;;2.77;;
13704;SDS011;6924;52.122;9.952;2024-01-16T10:48:00;3.37;;;2.33;;
13704;SDS011;6924;52.122;9.952;2024-01-16T10:50:27;3.13;;;2.10;;
13704;SDS011;6924;52.122;9.952;2024-01-16T10:52:54;2.30;;;1.70;;
13704;SDS011;6924;52.122;9.952;2024-01-16T10:55:21;4.83;;;2.67;;
13704;SDS011;6924;52.122;9.952;2024-01-16T10:57:50;7.37;;;2.60;;
13704;SDS011;6924;52.122;9.952;2024-01-16T11:00:18;3.47;;;2.40;;
13704;SDS011;6924;52.122;9.952;2024-01-16T11:02:49;5.13;;;2.73;;
13704;SDS011;6924;52.122;9.952;2024-01-16T11:05:17;3.43;;;2.53;;
13704;SDS011;6924;52.122;9.952;2024-01-16T11:07:43;4.67;;;2.40;;
13704;SDS011;6924;52.122;9.952;2024-01-16T11:10:10;4.80;;;2.53;;
13704;SDS011;6924;52.122;9.952;2024-01-16T11:12:38;3.43;;;2.23;;
13704;SDS011;6924;52.122;9.952;2024-01-16T11:15:07;2.17;;;1.90;;
13704;SDS011;6924;52.122;9.952;2024-01-16T11:17:37;3.53;;;2.33;;
13704;SDS011;6924;52.122;9.952;2024-01-16T11:20:05;4.07;;;2.40;;
13704;SDS011;6924;52.122;9.952;2024-01-16T11:22:36;4.23;;;2.67;;
13704;SDS011;6924;52.122;9.952;2024-01-16T11:25:09;2.87;;;2.07;;
13704;SDS011;6924;52.122;9.952;2024-01-16T11:27:36;4.10;;;2.23;;
13704;SDS011;6924;52.122;9.952;2024-01-16T11:30:03;5.07;;;2.67;;
13704;SDS011;6924;52.122;9.952;2024-01-16T11:32:33;5.20;;;2.33;;
13704;SDS011;6924;52.122;9.952;2024-01-16T11:35:01;3.90;;;2.00;;
13704;SDS011;6924;52.122;9.952;2024-01-16T11:37:29;4.73;;;2.10;;
13704;SDS011;6924;52.122;9.952;2024-01-16T11:42:53;6.40;;;2.10;;
13704;SDS011;6924;52.122;9.952;2024-01-16T11:48:16;2.27;;;1.90;;
13704;SDS011;6924;52.122;9.952;2024-01-16T11:50:43;6.77;;;2.50;;
13704;SDS011;6924;52.122;9.952;2024-01-16T11:53:10;3.03;;;2.07;;
13704;SDS011;6924;52.122;9.952;2024-01-16T11:55:41;4.50;;;2.77;;
13704;SDS011;6924;52.122;9.952;2024-01-16T11:58:30;5.07;;;2.83;;
13704;SDS011;6924;52.122;9.952;2024-01-16T12:01:08;5.50;;;3.00;;
13704;SDS011;6924;52.122;9.952;2024-01-16T12:03:38;3.67;;;2.60;;
13704;SDS011;6924;52.122;9.952;2024-01-16T12:06:04;6.83;;;2.77;;
13704;SDS011;6924;52.122;9.952;2024-01-16T12:08:33;4.00;;;3.60;;
13704;SDS011;6924;52.122;9.952;2024-01-16T12:11:01;6.17;;;3.30;;
13704;SDS011;6924;52.122;9.952;2024-01-16T12:13:28;4.67;;;3.40;;
13704;SDS011;6924;52.122;9.952;2024-01-16T12:16:02;5.90;;;3.33;;
13704;SDS011;6924;52.122;9.952;2024-01-16T12:18:29;4.87;;;3.60;;
13704;SDS011;6924;52.122;9.952;2024-01-16T12:20:57;5.03;;;3.77;;
13704;SDS011;6924;52.122;9.952;2024-01-16T12:23:34;8.60;;;4.47;;
13704;SDS011;6924;52.122;9.952;2024-01-16T12:26:00;6.50;;;4.80;;
13704;SDS011;6924;52.122;9.952;2024-01-16T12:28:28;9.47;;;5.80;;
13704;SDS011;6924;52.122;9.952;2024-01-16T12:30:55;11.30;;;5.43;;
13704;SDS011;6924;52.122;9.952;2024-01-16T12:33:22;10.53;;;6.07;;
13704;SDS011;6924;52.122;9.952;2024-01-16T12:35:48;11.67;;;7.27;;
13704;SDS011;6924;52.122;9.952;2024-01-16T12:38:16;7.30;;;6.60;;
13704;SDS011;6924;52.122;9.952;2024-01-16T12:40:44;7.47;;;6.77;;
13704;SDS011;6924;52.122;9.952;2024-01-16T12:43:13;9.87;;;7.00;;
13704;SDS011;6924;52.122;9.952;2024-01-16T12:45:42;10.43;;;7.47;;
13704;SDS011;6924;52.122;9.952;2024-01-16T12:48:09;7.40;;;6.23;;
13704;SDS011;6924;52.122;9.952;2024-01-16T12:50:36;10.10;;;7.50;;
13704;SDS011;6924;52.122;9.952;2024-01-16T12:53:03;9.13;;;7.37;;
13704;SDS011;6924;52.122;9.952;2024-01-16T12:55:32;13.23;;;7.30;;
13704;SDS011;6924;52.122;9.952;2024-01-16T12:58:12;10.27;;;7.17;;
13704;SDS011;6924;52.122;9.952;2024-01-16T13:00:39;7.60;;;6.80;;
13704;SDS011;6924;52.122;9.952;2024-01-16T13:03:06;9.80;;;7.67;;
13704;SDS011;6924;52.122;9.952;2024-01-16T13:05:32;9.97;;;7.40;;
13704;SDS011;6924;52.122;9.952;2024-01-16T13:07:59;10.40;;;8.00;;
13704;SDS011;6924;52.122;9.952;2024-01-16T13:10:27;12.93;;;8.00;;
13704;SDS011;6924;52.122;9.952;2024-01-16T13:15:42;13.00;;;9.00;;
13704;SDS011;6924;52.122;9.952;2024-01-16T13:18:17;9.40;;;7.77;;
13704;SDS011;6924;52.122;9.952;2024-01-16T13:20:44;9.07;;;8.13;;
13704;SDS011;6924;52.122;9.952;2024-01-16T13:23:12;8.27;;;7.50;;
13704;SDS011;6924;52.122;9.952;2024-01-16T13:25:39;11.97;;;6.67;;
13704;SDS011;6924;52.122;9.952;2024-01-16T13:28:06;7.77;;;6.17;;
13704;SDS011;6924;52.122;9.952;2024-01-16T13:30:34;10.23;;;6.40;;
13704;SDS011;6924;52.122;9.952;2024-01-16T13:33:00;6.90;;;6.00;;
13704;SDS011;6924;52.122;9.952;2024-01-16T13:35:27;8.77;;;5.70;;
13704;SDS011;6924;52.122;9.952;2024-01-16T13:37:54;7.57;;;5.40;;
13704;SDS011;6924;52.122;9.952;2024-01-16T13:40:20;7.00;;;5.10;;
13704;SDS011;6924;52.122;9.952;2024-01-16T13:42:47;7.37;;;4.90;;
13704;SDS011;6924;52.122;9.952;2024-01-16T13:45:14;4.90;;;4.03;;
13704;SDS011;6924;52.122;9.952;2024-01-16T13:47:43;7.33;;;4.27;;
13704;SDS011;6924;52.122;9.952;2024-01-16T13:50:09;9.17;;;5.03;;
13704;SDS011;6924;52.122;9.952;2024-01-16T13:52:37;6.57;;;4.10;;
13704;SDS011;6924;52.122;9.952;2024-01-16T13:55:05;4.63;;;3.77;;
13704;SDS011;6924;52.122;9.952;2024-01-16T13:57:31;10.67;;;4.03;;
13704;SDS011;6924;52.122;9.952;2024-01-16T14:00:00;5.77;;;3.47;;
13704;SDS011;6924;52.122;9.952;2024-01-16T14:02:26;6.30;;;3.90;;
13704;SDS011;6924;52.122;9.952;2024-01-16T14:04:54;5.17;;;3.00;;
13704;SDS011;6924;52.122;9.952;2024-01-16T14:07:20;6.10;;;3.97;;
13704;SDS011;6924;52.122;9.952;2024-01-16T14:09:47;3.87;;;2.53;;
13704;SDS011;6924;52.122;9.952;2024-01-16T14:12:13;6.03;;;3.23;;
13704;SDS011;6924;52.122;9.952;2024-01-16T14:14:40;3.83;;;2.93;;
13704;SDS011;6924;52.122;9.952;2024-01-16T14:17:07;6.27;;;2.73;;
13704;SDS011;6924;52.122;9.952;2024-01-16T14:19:34;4.00;;;2.20;;
13704;SDS011;6924;52.122;9.952;2024-01-16T14:22:02;4.73;;;2.80;;
13704;SDS011;6924;52.122;9.952;2024-01-16T14:24:29;5.10;;;3.17;;
13704;SDS011;6924;52.122;9.952;2024-01-16T14:26:55;4.27;;;2.20;;
13704;SDS011;6924;52.122;9.952;2024-01-16T14:29:22;4.27;;;2.17;;
13704;SDS011;6924;52.122;9.952;2024-01-16T14:31:49;7.03;;;1.93;;
13704;SDS011;6924;52.122;9.952;2024-01-16T14:34:15;3.60;;;1.73;;
13704;SDS011;6924;52.122;9.952;2024-01-16T14:36:42;4.57;;;2.70;;
13704;SDS011;6924;52.122;9.952;2024-01-16T14:39:10;4.10;;;1.90;;
13704;SDS011;6924;52.122;9.952;2024-01-16T14:41:38;2.53;;;1.70;;
13704;SDS011;6924;52.122;9.952;2024-01-16T14:44:06;2.80;;;1.67;;
13704;SDS011;6924;52.122;9.952;2024-01-16T14:46:34;4.30;;;1.87;;
13704;SDS011;6924;52.122;9.952;2024-01-16T14:49:00;2.97;;;2.00;;
13704;SDS011;6924;52.122;9.952;2024-01-16T14:51:27;5.57;;;2.47;;
13704;SDS011;6924;52.122;9.952;2024-01-16T14:53:54;2.93;;;2.10;;
13704;SDS011;6924;52.122;9.952;2024-01-16T14:56:22;4.23;;;1.80;;
13704;SDS011;6924;52.122;9.952;2024-01-16T14:58:49;2.10;;;1.97;;
13704;SDS011;6924;52.122;9.952;2024-01-16T15:01:16;2.10;;;1.60;;
13704;SDS011;6924;52.122;9.952;2024-01-16T15:03:43;5.20;;;2.40;;
13704;SDS011;6924;52.122;9.952;2024-01-16T15:06:10;2.17;;;1.80;;
13704;SDS011;6924;52.122;9.952;2024-01-16T15:08:37;7.43;;;2.77;;